メインページ
METAR-TAF:

METAR-TAF

空港 :

新潟, 日本

新潟空港

緯度: 37-57N, 経度: 139-07E, 海抜: 1m

現時点の気象観測

当レポートは40分前の23:00(UTC)に作成
南/南東の風 4kt
気温 -1°C
湿度 100%
気圧 1023 hPa
視程10km以上
高度1000ftの雲はほとんどない
高度2000ftの雲は散在している
高度3000ftの千切れ雲あり
弱いにわか雪

METAR: RJSN 182300Z 15004KT 9999 -SHSN FEW010 SCT020 BKN030 M01/M01 Q1023

時間: 08:40 (23:40 UTC)

予報

当レポートは34分前の23:06(UTC)に作成
予報は19日の 00時(UTC)から 20日の 06時(UTC)まで有効
南/南西の風 8kt
視程10km以上
高度2000ftの雲はほとんどない
高度5000ftの千切れ雲あり
19日の 00時(UTC)から 19日の 02時(UTC)まで一時的に
視程: 3000m
弱いにわか雪
19日の 02時(UTC)から 19日の 04時(UTC)まで徐々に
西/北西の風 10kt
19日の 08時(UTC)から 19日の 10時(UTC)まで徐々に
の風 8kt
19日の 15時(UTC)から 19日の 18時(UTC)まで徐々に
北西の風 12kt
19日の 15時(UTC)から 19日の 21時(UTC)まで一時的に
視程: 2000m
高度500ftの雲はほとんどない
高度800ftの千切れ雲あり
弱いにわか雪

TAF: RJSN 182306Z 1900/2006 20008KT 9999 FEW020 BKN050 TEMPO 1900/1902 3000 -SHSN BECMG 1902/1904 30010KT BECMG 1908/1910 18008KT BECMG 1915/1918 32012KT TEMPO 1915/1921 2000 -SHSN FEW005 BKN008

4,000以上の空港の気象観測と天気予報(METAR報とTAF報)

利用可能な観測所は地図上に黄色い丸と赤い丸で示す。

丸の上にカーソルを重ねると観測所名を参照できる。

次にクリックすると気象観測と天気予報を参照できる。

マップの切り替え:黒色「×」印の緑ボタンをクリックして拡大、「-」印の緑ボタンをクリックして縮小、緑色の三角印をクリックして隣りの地図に切り替え


METAR-TAF: